Time;durP1;ratioP1;P1;durP2;ratioP2;P2;SDS_P1;SDS_P2;PMS_P1;PMS_P2;Temp;Humidity;BMP_temperature;BMP_pressure;BME280_temperature;BME280_humidity;BME280_pressure;Samples;Min_cycle;Max_cycle;Signal;HPM_P1;HPM_P2
2021/01/11 00:00:46;;;;;;;28.23;20.13;;;4.50;99.90;;;;;;5072899;28;20296;-63
2021/01/11 00:03:12;;;;;;;31.83;21.47;;;4.60;99.90;;;;;;5072800;28;20295;-65
2021/01/11 00:05:37;;;;;;;29.00;18.97;;;4.50;99.90;;;;;;5074302;28;20168;-65
2021/01/11 00:08:03;;;;;;;33.87;21.33;;;4.50;99.90;;;;;;5073468;28;20528;-66
2021/01/11 00:10:29;;;;;;;34.20;21.95;;;4.40;99.90;;;;;;5073167;28;20187;-64
2021/01/11 00:12:54;;;;;;;34.63;21.57;;;4.60;99.90;;;;;;5074111;28;20521;-65
2021/01/11 00:15:20;;;;;;;32.27;19.60;;;4.50;99.90;;;;;;5073523;28;20185;-65
2021/01/11 00:17:46;;;;;;;30.80;20.33;;;4.60;99.90;;;;;;5073161;28;20195;-63
2021/01/11 00:20:12;;;;;;;29.93;20.00;;;4.50;99.90;;;;;;5073476;28;20211;-62
2021/01/11 00:22:41;;;;;;;35.88;21.23;;;4.60;99.90;;;;;;5073443;28;20242;-62
2021/01/11 00:25:07;;;;;;;33.10;18.52;;;4.50;99.90;;;;;;5072169;28;20214;-63
2021/01/11 00:27:33;;;;;;;30.90;19.70;;;4.40;99.90;;;;;;5072877;28;20530;-65
2021/01/11 00:29:58;;;;;;;29.00;19.17;;;4.40;99.90;;;;;;5073662;28;20172;-65
2021/01/11 00:32:24;;;;;;;38.33;22.47;;;4.50;99.90;;;;;;5073843;28;20255;-64
2021/01/11 00:34:50;;;;;;;36.80;22.27;;;4.50;99.90;;;;;;5073438;28;20200;-64
2021/01/11 00:37:15;;;;;;;36.23;22.00;;;4.50;99.90;;;;;;5072630;28;20202;-64
2021/01/11 00:39:41;;;;;;;38.20;23.03;;;4.60;99.90;;;;;;5072688;28;20192;-64
2021/01/11 00:42:06;;;;;;;41.23;22.53;;;4.60;99.90;;;;;;5072549;28;20196;-64
2021/01/11 00:44:32;;;;;;;37.60;22.07;;;4.60;99.90;;;;;;5073141;28;20176;-63
2021/01/11 00:47:03;;;;;;;42.10;23.50;;;4.60;99.90;;;;;;5073845;28;20179;-64
2021/01/11 00:49:29;;;;;;;40.63;21.83;;;4.50;99.90;;;;;;5073777;28;20617;-63
2021/01/11 00:51:54;;;;;;;37.30;21.87;;;4.60;99.90;;;;;;5073589;28;20184;-63
2021/01/11 00:54:20;;;;;;;36.80;21.90;;;4.50;99.90;;;;;;5073506;28;20864;-64
2021/01/11 00:56:46;;;;;;;41.45;23.90;;;4.60;99.90;;;;;;5073783;28;20191;-66
2021/01/11 00:59:13;;;;;;;37.93;21.80;;;4.60;99.90;;;;;;5072936;28;20244;-67
2021/01/11 01:01:46;;;;;;;41.38;22.75;;;4.70;99.90;;;;;;5072374;28;20209;-66
2021/01/11 01:04:12;;;;;;;38.05;22.20;;;4.70;99.90;;;;;;5073366;28;20180;-62
2021/01/11 01:06:37;;;;;;;39.53;22.77;;;4.60;99.90;;;;;;5073605;28;20177;-64
2021/01/11 01:09:03;;;;;;;34.53;20.47;;;4.70;99.90;;;;;;5072568;28;20180;-64
2021/01/11 01:11:29;;;;;;;42.43;23.00;;;4.80;99.90;;;;;;5073414;28;20264;-63
2021/01/11 01:13:55;;;;;;;39.95;23.35;;;4.80;99.90;;;;;;5073374;28;20172;-65
2021/01/11 01:16:27;;;;;;;40.37;20.33;;;4.80;99.90;;;;;;5072457;28;20184;-65
2021/01/11 01:18:54;;;;;;;43.33;22.13;;;4.80;99.90;;;;;;5075266;28;20177;-65
2021/01/11 01:21:20;;;;;;;36.80;20.80;;;4.80;99.90;;;;;;5077067;28;20649;-65
2021/01/11 01:23:45;;;;;;;38.53;22.90;;;4.80;99.90;;;;;;5077541;28;20212;-65
2021/01/11 01:26:11;;;;;;;39.03;22.17;;;4.70;99.90;;;;;;5077262;28;20426;-65
2021/01/11 01:28:37;;;;;;;46.40;24.03;;;4.80;99.90;;;;;;5077248;28;20173;-66
2021/01/11 01:31:02;;;;;;;38.33;22.17;;;4.80;99.90;;;;;;5076299;28;20181;-66
2021/01/11 01:33:28;;;;;;;41.73;22.60;;;4.80;99.90;;;;;;5076319;28;20185;-64
2021/01/11 01:35:53;;;;;;;38.90;21.43;;;4.80;99.90;;;;;;5076572;28;20602;-64
2021/01/11 01:38:19;;;;;;;39.17;23.63;;;4.70;99.90;;;;;;5076465;28;20614;-66
2021/01/11 01:40:45;;;;;;;39.27;21.60;;;4.90;99.90;;;;;;5076883;28;20185;-67
2021/01/11 01:43:14;;;;;;;43.03;23.45;;;5.00;99.90;;;;;;5076728;28;20447;-67
2021/01/11 01:45:40;;;;;;;40.78;22.70;;;5.10;99.90;;;;;;5076791;28;20234;-66
2021/01/11 01:48:06;;;;;;;40.45;22.55;;;4.90;99.90;;;;;;5076736;28;20298;-63
2021/01/11 01:50:34;;;;;;;39.05;22.38;;;4.90;99.90;;;;;;5076616;28;20589;-62
2021/01/11 01:53:00;;;;;;;35.65;20.23;;;4.90;99.90;;;;;;5076557;28;20230;-62
2021/01/11 01:55:25;;;;;;;34.57;19.80;;;4.90;99.90;;;;;;5076419;28;20383;-61
2021/01/11 01:57:54;;;;;;;39.20;22.53;;;4.90;99.90;;;;;;5076291;28;20617;-62
2021/01/11 02:00:20;;;;;;;33.92;19.40;;;5.00;99.90;;;;;;5075162;28;20196;-62
2021/01/11 02:02:46;;;;;;;33.35;20.77;;;5.00;99.90;;;;;;5076453;28;20240;-66
2021/01/11 02:05:12;;;;;;;33.73;20.20;;;5.00;99.90;;;;;;5076608;28;20200;-65
2021/01/11 02:07:45;;;;;;;32.63;20.07;;;5.00;99.90;;;;;;5076714;28;20282;-65
2021/01/11 02:10:14;;;;;;;35.15;19.38;;;4.90;99.90;;;;;;5076164;28;20452;-66
2021/01/11 02:12:51;;;;;;;33.30;19.30;;;4.80;99.90;;;;;;5076006;28;20609;-64
2021/01/11 02:15:24;;;;;;;37.72;21.10;;;4.90;99.90;;;;;;5074864;28;20184;-66
2021/01/11 02:18:02;;;;;;;31.70;18.85;;;4.90;99.90;;;;;;5076065;28;20515;-64
2021/01/11 02:20:57;;;;;;;36.90;19.98;;;4.80;99.90;;;;;;5075843;28;20218;-65
2021/01/11 02:23:38;;;;;;;31.23;20.20;;;4.80;99.90;;;;;;5074417;28;20215;-64
2021/01/11 02:26:16;;;;;;;37.30;20.80;;;4.90;99.90;;;;;;5075785;28;20547;-64
2021/01/11 02:28:57;;;;;;;33.88;22.27;;;4.80;99.90;;;;;;5075798;28;20184;-63
2021/01/11 02:31:28;;;;;;;36.75;21.63;;;4.90;99.90;;;;;;5075250;28;20172;-64
2021/01/11 02:33:56;;;;;;;35.10;20.92;;;4.90;99.90;;;;;;5075671;28;20267;-63
2021/01/11 02:36:23;;;;;;;37.35;22.08;;;4.80;99.90;;;;;;5075298;28;20238;-64
2021/01/11 02:38:50;;;;;;;38.47;23.65;;;4.80;99.90;;;;;;5075641;28;20203;-65
2021/01/11 02:41:16;;;;;;;35.53;21.65;;;4.90;99.90;;;;;;5075314;28;20183;-66
2021/01/11 02:43:41;;;;;;;36.53;21.93;;;4.80;99.90;;;;;;5074984;28;20197;-65
2021/01/11 02:46:14;;;;;;;31.50;21.00;;;4.80;99.90;;;;;;5075439;28;20169;-65
2021/01/11 02:48:59;;;;;;;38.13;22.52;;;4.70;99.90;;;;;;5075354;28;20176;-65
2021/01/11 02:51:50;;;;;;;36.33;22.23;;;4.60;99.90;;;;;;5075343;28;20164;-65
2021/01/11 02:54:20;;;;;;;35.25;19.13;;;4.60;99.90;;;;;;5074869;28;20176;-66
2021/01/11 02:56:54;;;;;;;37.95;21.95;;;4.60;99.90;;;;;;5075127;28;20169;-65
2021/01/11 02:59:43;;;;;;;42.03;23.75;;;4.70;99.90;;;;;;5075414;28;20641;-66
2021/01/11 03:02:11;;;;;;;43.78;24.27;;;4.80;99.90;;;;;;5075233;28;20271;-65
2021/01/11 03:04:38;;;;;;;40.38;23.65;;;4.80;99.90;;;;;;5074926;28;20238;-65
2021/01/11 03:07:05;;;;;;;39.03;23.55;;;4.50;99.90;;;;;;5075811;28;20238;-65
2021/01/11 03:09:34;;;;;;;40.50;24.05;;;4.60;99.90;;;;;;5074047;28;20191;-64
2021/01/11 03:12:00;;;;;;;39.22;25.15;;;4.70;99.90;;;;;;5073907;28;20184;-64
2021/01/11 03:14:26;;;;;;;44.40;23.67;;;4.80;99.90;;;;;;5073497;28;20233;-64
2021/01/11 03:16:52;;;;;;;46.13;25.40;;;4.80;99.90;;;;;;5074541;28;20449;-64
2021/01/11 03:19:18;;;;;;;40.72;24.90;;;4.90;99.90;;;;;;5073859;28;20275;-62
2021/01/11 03:21:43;;;;;;;29.10;17.37;;;4.90;99.90;;;;;;5074742;28;20756;-63
2021/01/11 03:24:09;;;;;;;39.17;23.93;;;4.60;99.90;;;;;;5074731;28;20617;-62
2021/01/11 03:26:36;;;;;;;52.83;26.70;;;4.50;99.90;;;;;;5075097;28;20177;-64
2021/01/11 03:29:02;;;;;;;48.63;25.75;;;4.60;99.90;;;;;;5073637;28;20513;-64
2021/01/11 03:31:28;;;;;;;48.15;28.02;;;4.60;99.90;;;;;;5074261;28;20176;-66
2021/01/11 03:33:54;;;;;;;42.27;25.37;;;4.70;99.90;;;;;;5073133;28;20279;-65
2021/01/11 03:36:20;;;;;;;41.13;23.97;;;4.90;99.90;;;;;;5074420;28;20188;-64
2021/01/11 03:38:46;;;;;;;41.57;23.30;;;4.70;99.90;;;;;;5074160;28;20173;-63
2021/01/11 03:41:12;;;;;;;48.75;24.20;;;4.80;99.90;;;;;;5073762;28;20435;-63
2021/01/11 03:43:39;;;;;;;44.60;25.60;;;4.70;99.90;;;;;;5072371;28;20212;-63
2021/01/11 03:46:06;;;;;;;45.25;24.42;;;4.80;99.90;;;;;;5074032;28;20259;-63
2021/01/11 03:48:33;;;;;;;41.75;23.33;;;4.80;99.90;;;;;;5074536;28;20172;-63
2021/01/11 03:51:00;;;;;;;49.25;26.65;;;4.70;99.90;;;;;;5074695;28;20172;-63
2021/01/11 03:53:25;;;;;;;47.63;25.15;;;4.70;99.90;;;;;;5074429;28;20183;-63
2021/01/11 03:55:51;;;;;;;51.10;25.33;;;4.80;99.90;;;;;;5073310;28;20271;-64
2021/01/11 03:58:19;;;;;;;45.93;25.83;;;4.70;99.90;;;;;;5074182;28;20499;-63
2021/01/11 04:00:48;;;;;;;46.50;24.05;;;4.70;99.90;;;;;;5074604;28;20458;-64
2021/01/11 04:03:13;;;;;;;43.80;25.05;;;4.70;99.90;;;;;;5072701;28;20719;-64
2021/01/11 04:05:46;;;;;;;46.63;24.83;;;4.70;99.90;;;;;;5073661;28;20255;-64
2021/01/11 04:08:12;;;;;;;48.05;25.60;;;4.60;99.90;;;;;;5073859;28;20177;-64
2021/01/11 04:10:37;;;;;;;45.92;25.45;;;4.60;99.90;;;;;;5073710;28;20183;-64
2021/01/11 04:13:04;;;;;;;45.30;26.43;;;4.70;99.90;;;;;;5073612;28;20185;-64
2021/01/11 04:15:30;;;;;;;46.30;22.63;;;4.50;99.90;;;;;;5073480;28;20176;-64
2021/01/11 04:17:55;;;;;;;44.30;23.50;;;4.40;99.90;;;;;;5073537;28;20188;-64
2021/01/11 04:20:21;;;;;;;42.90;24.90;;;4.50;99.90;;;;;;5074236;28;20514;-64
2021/01/11 04:22:47;;;;;;;35.27;21.37;;;4.60;99.90;;;;;;5073340;28;20299;-64
2021/01/11 04:25:12;;;;;;;38.90;22.53;;;4.60;99.90;;;;;;5073209;28;20193;-64
2021/01/11 04:27:38;;;;;;;41.43;22.73;;;4.70;99.90;;;;;;5073588;28;20195;-64
2021/01/11 04:30:06;;;;;;;47.30;23.93;;;4.50;99.90;;;;;;5072597;28;20185;-65
2021/01/11 04:32:34;;;;;;;41.45;24.05;;;4.50;99.90;;;;;;5073715;28;20503;-64
2021/01/11 04:35:01;;;;;;;41.67;23.23;;;4.50;99.90;;;;;;5073102;28;20184;-64
2021/01/11 04:37:26;;;;;;;44.72;21.52;;;4.60;99.90;;;;;;5075376;28;20267;-64
2021/01/11 04:39:52;;;;;;;36.77;20.83;;;4.70;99.90;;;;;;5074320;28;20634;-64
2021/01/11 04:42:27;;;;;;;37.20;22.10;;;4.60;99.90;;;;;;5073336;28;20243;-64
2021/01/11 04:44:58;;;;;;;38.00;22.20;;;4.60;99.90;;;;;;5075346;28;20191;-65
2021/01/11 04:47:24;;;;;;;42.58;24.02;;;4.70;99.90;;;;;;5079246;28;20157;-65
2021/01/11 04:49:52;;;;;;;35.92;20.30;;;4.70;99.90;;;;;;5073948;28;20306;-65
2021/01/11 04:52:18;;;;;;;37.53;21.27;;;4.50;99.90;;;;;;5074171;28;20207;-65
2021/01/11 04:54:49;;;;;;;43.85;22.80;;;4.50;99.90;;;;;;5077743;28;20185;-65
2021/01/11 04:57:15;;;;;;;40.25;21.90;;;4.60;99.90;;;;;;5087423;28;20176;-65
2021/01/11 04:59:50;;;;;;;38.25;21.52;;;4.70;99.90;;;;;;5097377;28;20201;-65
2021/01/11 05:02:22;;;;;;;38.70;22.77;;;4.70;99.90;;;;;;5098293;28;20210;-65
2021/01/11 05:04:49;;;;;;;39.75;22.38;;;4.50;99.90;;;;;;5087694;28;20184;-65
2021/01/11 05:07:21;;;;;;;43.28;22.42;;;4.60;99.90;;;;;;5078335;28;20700;-65
2021/01/11 05:09:47;;;;;;;31.30;19.85;;;4.60;99.90;;;;;;5078157;28;20522;-65
2021/01/11 05:12:14;;;;;;;41.23;24.37;;;4.50;99.90;;;;;;5077006;28;20181;-65
2021/01/11 05:14:41;;;;;;;41.75;22.67;;;4.50;99.90;;;;;;5076031;28;20241;-65
2021/01/11 05:17:07;;;;;;;45.55;24.88;;;4.60;99.90;;;;;;5077516;28;20196;-65
2021/01/11 05:19:33;;;;;;;40.70;26.13;;;4.60;99.90;;;;;;5076987;28;20525;-65
2021/01/11 05:21:59;;;;;;;41.23;23.53;;;4.50;99.90;;;;;;5076795;28;20204;-65
2021/01/11 05:24:36;;;;;;;41.78;23.48;;;4.60;99.90;;;;;;5076489;28;20176;-65
2021/01/11 05:27:06;;;;;;;44.80;24.60;;;4.70;99.90;;;;;;5076942;28;20215;-65
2021/01/11 05:29:33;;;;;;;47.08;23.73;;;4.70;99.90;;;;;;5077204;28;20184;-65
2021/01/11 05:32:01;;;;;;;40.35;24.15;;;4.70;99.90;;;;;;5076910;28;20211;-65
2021/01/11 05:34:46;;;;;;;41.10;23.75;;;4.70;99.90;;;;;;5076328;28;20181;-65
2021/01/11 05:37:42;;;;;;;41.35;24.63;;;4.70;99.90;;;;;;5075598;28;20189;-65
2021/01/11 05:40:14;;;;;;;40.28;23.45;;;4.60;99.90;;;;;;5075713;28;20616;-65
2021/01/11 05:42:41;;;;;;;40.08;23.20;;;4.50;99.90;;;;;;5076218;28;20455;-65
2021/01/11 05:45:18;;;;;;;42.30;23.80;;;4.50;99.90;;;;;;5075310;28;20632;-65
2021/01/11 05:47:59;;;;;;;39.28;23.00;;;4.50;99.90;;;;;;5076395;28;20187;-65
2021/01/11 05:50:29;;;;;;;43.28;23.85;;;4.60;99.90;;;;;;5076451;28;20172;-65
2021/01/11 05:52:55;;;;;;;37.40;22.13;;;4.60;99.90;;;;;;5076619;28;20520;-65
2021/01/11 05:55:28;;;;;;;41.30;23.13;;;4.60;99.90;;;;;;5076671;28;20184;-65
2021/01/11 05:58:02;;;;;;;43.38;23.08;;;4.70;99.90;;;;;;5076448;28;20637;-65
2021/01/11 06:00:32;;;;;;;41.45;22.60;;;4.60;99.90;;;;;;5075957;28;20219;-65
2021/01/11 06:02:59;;;;;;;42.28;23.65;;;4.60;99.90;;;;;;5075920;28;20270;-65
2021/01/11 06:05:27;;;;;;;42.22;23.02;;;4.70;99.90;;;;;;5074561;28;20204;-65
2021/01/11 06:07:53;;;;;;;40.45;23.42;;;4.60;99.90;;;;;;5075795;28;20609;-65
2021/01/11 06:10:20;;;;;;;35.40;20.52;;;4.60;99.90;;;;;;5075766;28;20195;-65
2021/01/11 06:12:47;;;;;;;34.45;21.27;;;4.50;99.90;;;;;;5075729;28;20204;-65
2021/01/11 06:15:15;;;;;;;34.00;18.65;;;4.60;99.90;;;;;;5075807;28;20182;-65
2021/01/11 06:17:43;;;;;;;35.42;19.50;;;4.60;99.90;;;;;;5075803;28;20172;-65
2021/01/11 06:20:16;;;;;;;34.30;21.20;;;4.70;99.90;;;;;;5074738;28;20242;-65
2021/01/11 06:22:45;;;;;;;38.05;18.40;;;4.60;99.90;;;;;;5075708;28;20215;-66
2021/01/11 06:25:22;;;;;;;36.58;19.17;;;4.60;99.90;;;;;;5075358;28;20177;-66
2021/01/11 06:27:55;;;;;;;26.33;17.10;;;4.60;99.00;;;;;;5075385;28;20177;-66
2021/01/11 06:30:40;;;;;;;29.02;17.00;;;4.50;90.00;;;;;;5075504;28;20234;-66
2021/01/11 06:33:06;;;;;;;25.30;16.02;;;4.40;69.50;;;;;;5075458;28;20641;-66
2021/01/11 06:35:52;;;;;;;28.63;15.43;;;4.40;50.30;;;;;;5075576;28;20196;-66
2021/01/11 06:38:28;;;;;;;21.70;13.02;;;4.40;58.20;;;;;;5073802;28;20541;-66
2021/01/11 06:41:03;;;;;;;27.05;15.40;;;4.40;56.50;;;;;;5074564;28;20641;-66
2021/01/11 06:43:38;;;;;;;22.80;13.88;;;4.30;52.50;;;;;;5074698;28;20208;-66
2021/01/11 06:46:04;;;;;;;20.75;14.82;;;4.30;46.30;;;;;;5075023;28;20176;-65
2021/01/11 06:48:32;;;;;;;22.33;14.10;;;4.30;47.30;;;;;;5075070;28;20192;-65
2021/01/11 06:51:05;;;;;;;21.25;13.93;;;4.30;58.10;;;;;;5074601;28;20242;-64
2021/01/11 06:53:31;;;;;;;23.00;13.98;;;4.30;53.90;;;;;;5074175;28;20181;-65
2021/01/11 06:56:11;;;;;;;22.47;13.60;;;4.30;52.30;;;;;;5075056;28;20487;-64
2021/01/11 06:58:38;;;;;;;17.63;11.68;;;4.30;51.40;;;;;;5074689;28;20438;-65
2021/01/11 07:01:07;;;;;;;22.75;13.23;;;4.30;50.60;;;;;;5074729;28;20207;-65
2021/01/11 07:03:45;;;;;;;21.88;14.02;;;4.20;28.60;;;;;;5074245;28;20209;-65
2021/01/11 07:06:36;;;;;;;21.85;13.15;;;4.20;16.70;;;;;;5074580;28;20265;-64
2021/01/11 07:09:19;;;;;;;22.83;14.25;;;4.10;7.20;;;;;;5074557;28;20197;-65
2021/01/11 07:11:47;;;;;;;21.75;14.13;;;4.10;12.30;;;;;;5073709;28;20556;-63
2021/01/11 07:14:23;;;;;;;21.48;13.68;;;4.10;20.30;;;;;;5073134;28;20192;-63
2021/01/11 07:16:51;;;;;;;21.85;12.98;;;4.10;28.30;;;;;;5074480;28;20251;-65
2021/01/11 07:19:36;;;;;;;20.75;14.05;;;4.10;28.40;;;;;;5074444;28;20164;-65
2021/01/11 07:22:04;;;;;;;24.02;13.63;;;4.10;24.40;;;;;;5074238;28;20211;-64
2021/01/11 07:24:30;;;;;;;24.65;14.40;;;4.20;24.60;;;;;;5074089;28;20179;-64
2021/01/11 07:26:56;;;;;;;22.13;14.13;;;4.10;17.00;;;;;;5074383;28;20173;-62
2021/01/11 07:29:21;;;;;;;18.60;12.15;;;4.00;12.10;;;;;;5074399;28;20185;-62
2021/01/11 07:31:48;;;;;;;21.90;12.63;;;4.10;14.00;;;;;;5073762;28;20247;-61
2021/01/11 07:34:19;;;;;;;21.17;13.25;;;4.00;14.80;;;;;;5074094;28;20322;-61
2021/01/11 07:36:52;;;;;;;22.27;13.13;;;4.00;20.80;;;;;;5074477;28;20172;-61
2021/01/11 07:39:27;;;;;;;23.33;13.45;;;4.00;14.10;;;;;;5074265;28;20632;-62
2021/01/11 07:41:57;;;;;;;15.40;11.15;;;4.00;11.80;;;;;;5073785;28;20252;-62
2021/01/11 07:44:31;;;;;;;20.55;13.27;;;4.00;7.20;;;;;;5073779;28;20180;-65
2021/01/11 07:47:11;;;;;;;16.40;11.45;;;3.90;1.70;;;;;;5074255;28;20165;-66
2021/01/11 07:49:42;;;;;;;18.42;12.00;;;3.90;1.60;;;;;;5073135;28;20180;-65
2021/01/11 07:52:12;;;;;;;20.60;12.45;;;3.90;5.30;;;;;;5073971;28;20254;-65
2021/01/11 07:54:39;;;;;;;22.13;12.35;;;3.90;13.30;;;;;;5073669;28;20574;-65
2021/01/11 07:57:12;;;;;;;17.33;11.45;;;3.90;12.10;;;;;;5071479;28;20191;-62
2021/01/11 07:59:38;;;;;;;17.85;12.27;;;3.90;18.20;;;;;;5071364;28;20173;-62
2021/01/11 08:02:09;;;;;;;19.13;11.90;;;4.00;21.00;;;;;;5073689;28;20222;-62
2021/01/11 08:04:38;;;;;;;16.95;10.40;;;3.80;16.40;;;;;;5073714;28;20438;-62
2021/01/11 08:07:09;;;;;;;21.35;13.48;;;3.70;23.70;;;;;;5073393;28;20617;-62
2021/01/11 08:09:36;;;;;;;20.65;14.30;;;3.60;30.20;;;;;;5072645;28;20189;-62
2021/01/11 08:12:17;;;;;;;22.38;14.50;;;3.70;50.50;;;;;;5073370;28;20675;-62
2021/01/11 08:14:47;;;;;;;17.77;12.00;;;3.70;59.90;;;;;;5072490;28;20617;-61
2021/01/11 08:17:19;;;;;;;19.52;12.25;;;3.70;73.00;;;;;;5073899;28;20648;-61
2021/01/11 08:19:55;;;;;;;19.90;12.15;;;3.90;77.70;;;;;;5073655;28;20278;-63
2021/01/11 08:22:22;;;;;;;21.90;13.00;;;3.90;69.20;;;;;;5073743;28;20269;-64
2021/01/11 08:24:51;;;;;;;21.50;14.02;;;3.80;50.10;;;;;;5073796;28;20577;-62
2021/01/11 08:27:40;;;;;;;17.67;11.70;;;3.80;44.10;;;;;;5073572;28;20700;-62
2021/01/11 08:30:11;;;;;;;17.92;12.05;;;3.80;49.50;;;;;;5072903;28;20185;-62
2021/01/11 08:32:37;;;;;;;20.25;13.30;;;3.80;46.00;;;;;;5070318;28;20230;-63
2021/01/11 08:35:18;;;;;;;21.63;13.98;;;3.70;46.80;;;;;;5073616;28;20184;-63
2021/01/11 08:37:45;;;;;;;15.75;11.20;;;3.70;52.00;;;;;;5073865;28;20641;-62
2021/01/11 08:40:25;;;;;;;20.30;13.00;;;3.80;62.80;;;;;;5074199;28;20172;-65
2021/01/11 08:42:51;;;;;;;23.30;15.25;;;3.80;63.90;;;;;;5073736;28;20215;-64
2021/01/11 08:45:29;;;;;;;19.80;12.87;;;3.80;62.50;;;;;;5073740;28;20181;-64
2021/01/11 08:48:03;;;;;;;22.85;13.80;;;3.90;65.20;;;;;;5073754;28;20191;-63
2021/01/11 08:50:29;;;;;;;25.60;14.82;;;3.90;56.10;;;;;;5073828;28;20176;-62
2021/01/11 08:52:55;;;;;;;24.83;14.98;;;3.80;52.50;;;;;;5073806;28;20190;-62
2021/01/11 08:55:21;;;;;;;22.53;15.93;;;3.80;51.20;;;;;;5073249;28;20173;-62
2021/01/11 08:57:59;;;;;;;23.67;15.00;;;3.80;58.00;;;;;;5073611;28;20172;-63
2021/01/11 09:00:26;;;;;;;27.35;15.48;;;3.80;57.90;;;;;;5072557;28;20652;-62
2021/01/11 09:02:51;;;;;;;22.35;13.48;;;3.90;62.60;;;;;;5073966;28;20208;-62
2021/01/11 09:05:23;;;;;;;30.47;17.20;;;3.80;58.70;;;;;;5073248;28;20169;-63
2021/01/11 09:07:52;;;;;;;29.05;18.08;;;3.80;65.40;;;;;;5073772;28;20272;-63
2021/01/11 09:10:31;;;;;;;29.88;16.48;;;3.90;77.00;;;;;;5071493;28;20610;-65
2021/01/11 09:13:17;;;;;;;37.55;18.55;;;3.80;80.40;;;;;;5073139;28;20242;-62
2021/01/11 09:15:43;;;;;;;16.50;10.35;;;3.90;95.80;;;;;;5055587;28;20207;-64
2021/01/11 09:18:11;;;;;;;40.88;21.60;;;3.80;95.50;;;;;;5072225;28;20211;-62
2021/01/11 09:20:38;;;;;;;31.05;18.83;;;3.90;97.90;;;;;;5072153;28;20191;-60
2021/01/11 09:23:05;;;;;;;36.10;21.98;;;3.90;99.40;;;;;;5073357;28;20228;-61
2021/01/11 09:25:32;;;;;;;31.50;18.98;;;4.00;99.90;;;;;;5073310;28;20259;-62
2021/01/11 09:27:59;;;;;;;34.42;20.25;;;3.90;99.90;;;;;;5073365;28;20173;-63
2021/01/11 09:30:26;;;;;;;32.85;19.63;;;3.90;99.90;;;;;;5073706;28;20260;-62
2021/01/11 09:32:52;;;;;;;37.83;20.55;;;3.90;99.90;;;;;;5073635;28;20193;-62
2021/01/11 09:35:18;;;;;;;31.13;17.90;;;4.00;99.90;;;;;;5072986;28;20267;-63
2021/01/11 09:37:45;;;;;;;36.50;19.53;;;4.10;99.90;;;;;;5073301;28;20211;-62
2021/01/11 09:40:11;;;;;;;35.95;21.40;;;4.10;99.90;;;;;;5074461;28;20173;-62
2021/01/11 09:42:37;;;;;;;35.78;19.77;;;4.10;99.90;;;;;;5076914;28;20205;-62
2021/01/11 09:45:05;;;;;;;35.67;20.77;;;4.00;99.90;;;;;;5075419;28;20188;-61
2021/01/11 09:47:30;;;;;;;33.28;17.77;;;4.10;99.90;;;;;;5072719;28;20176;-60
2021/01/11 09:49:56;;;;;;;37.73;20.57;;;4.10;99.90;;;;;;5075439;28;20513;-59
2021/01/11 09:52:22;;;;;;;34.73;19.97;;;4.20;99.90;;;;;;5073562;28;20296;-61
2021/01/11 09:54:48;;;;;;;37.30;19.58;;;4.10;97.40;;;;;;5075387;28;20188;-63
2021/01/11 09:57:14;;;;;;;36.13;19.33;;;4.00;95.20;;;;;;5075418;28;20531;-61
2021/01/11 09:59:39;;;;;;;32.17;18.10;;;4.00;96.10;;;;;;5075774;28;20260;-61
2021/01/11 10:02:08;;;;;;;36.33;17.90;;;4.00;96.70;;;;;;5064749;28;20228;-63
2021/01/11 10:04:33;;;;;;;37.13;20.48;;;4.00;99.90;;;;;;5076304;28;20429;-63
2021/01/11 10:06:59;;;;;;;31.10;19.07;;;4.10;99.90;;;;;;5076843;28;20173;-63
2021/01/11 10:09:30;;;;;;;30.00;17.73;;;3.90;94.50;;;;;;5076290;28;20230;-64
2021/01/11 10:11:57;;;;;;;37.50;20.17;;;4.00;95.90;;;;;;5076633;28;20180;-64
2021/01/11 10:14:24;;;;;;;35.75;19.90;;;4.00;93.10;;;;;;5076083;28;20176;-62
2021/01/11 10:16:50;;;;;;;36.33;18.13;;;3.90;92.40;;;;;;5076560;28;20195;-64
2021/01/11 10:19:34;;;;;;;39.20;18.43;;;4.00;95.90;;;;;;5075906;28;20168;-63
2021/01/11 10:22:00;;;;;;;36.85;19.23;;;4.00;94.70;;;;;;5074880;28;20221;-62
2021/01/11 10:24:26;;;;;;;30.35;17.02;;;3.90;92.30;;;;;;5055774;28;20174;-60
2021/01/11 10:26:52;;;;;;;36.20;20.90;;;3.80;85.00;;;;;;5056074;28;20530;-62
2021/01/11 10:29:20;;;;;;;36.50;16.73;;;3.90;91.30;;;;;;5056308;28;20174;-60
2021/01/11 10:31:45;;;;;;;36.78;17.60;;;3.80;88.80;;;;;;5056120;28;20268;-61
2021/01/11 10:34:16;;;;;;;37.07;18.30;;;3.70;82.20;;;;;;5068326;28;20265;-62
2021/01/11 10:36:45;;;;;;;35.42;19.30;;;3.80;90.90;;;;;;5075266;28;20181;-63
2021/01/11 10:39:12;;;;;;;29.88;17.23;;;3.90;91.20;;;;;;5076218;28;20176;-60
2021/01/11 10:41:38;;;;;;;31.75;17.77;;;3.90;83.90;;;;;;5076122;28;20196;-63
2021/01/11 10:44:05;;;;;;;35.33;19.40;;;3.80;73.40;;;;;;5074703;28;20318;-63
2021/01/11 10:46:31;;;;;;;36.60;20.90;;;4.00;77.60;;;;;;5075815;28;20172;-62
2021/01/11 10:48:57;;;;;;;39.28;20.08;;;4.00;69.20;;;;;;5076100;28;20177;-63
2021/01/11 10:51:23;;;;;;;36.33;20.07;;;3.90;58.40;;;;;;5075251;28;20183;-61
2021/01/11 10:53:49;;;;;;;30.87;17.60;;;3.90;58.70;;;;;;5075708;28;20238;-64
2021/01/11 10:56:16;;;;;;;38.60;19.05;;;4.00;61.00;;;;;;5075296;28;20767;-62
2021/01/11 10:58:42;;;;;;;31.10;17.48;;;4.00;58.50;;;;;;5058039;28;20202;-64
2021/01/11 11:01:10;;;;;;;25.77;15.77;;;4.10;53.80;;;;;;5054073;28;20189;-62
2021/01/11 11:03:36;;;;;;;34.15;18.30;;;3.90;20.90;;;;;;5052899;28;20216;-63
2021/01/11 11:06:01;;;;;;;24.03;13.97;;;4.00;25.60;;;;;;5054077;28;20177;-63
2021/01/11 11:08:27;;;;;;;27.83;15.17;;;4.00;22.20;;;;;;5068040;28;20325;-63
2021/01/11 11:10:53;;;;;;;26.17;14.20;;;3.90;8.30;;;;;;5074338;28;20462;-65
2021/01/11 11:13:18;;;;;;;27.10;15.97;;;3.90;17.50;;;;;;5073035;28;20608;-64
2021/01/11 11:15:45;;;;;;;24.53;14.00;;;4.10;24.00;;;;;;5075002;28;20176;-63
2021/01/11 11:18:12;;;;;;;23.83;15.80;;;4.10;8.40;;;;;;5074897;28;20184;-65
2021/01/11 11:20:39;;;;;;;22.35;12.73;;;4.10;1.00;;;;;;5075183;28;20181;-63
2021/01/11 11:23:06;;;;;;;24.27;14.85;;;4.10;1.00;;;;;;5074368;28;20747;-62
2021/01/11 11:25:32;;;;;;;22.65;14.57;;;4.00;1.00;;;;;;5074958;28;20481;-64
2021/01/11 11:27:57;;;;;;;25.90;15.63;;;4.20;1.00;;;;;;5074496;28;20183;-63
2021/01/11 11:30:23;;;;;;;28.53;14.50;;;4.30;1.00;;;;;;5075429;28;20805;-63
2021/01/11 11:32:50;;;;;;;24.60;13.83;;;4.20;1.00;;;;;;5073829;28;20591;-64
2021/01/11 11:35:17;;;;;;;21.77;11.93;;;4.30;1.00;;;;;;5074395;28;20468;-65
2021/01/11 11:37:44;;;;;;;25.65;14.18;;;4.30;1.00;;;;;;5074436;28;20562;-63
2021/01/11 11:40:11;;;;;;;30.58;17.25;;;4.10;1.00;;;;;;5073471;28;20262;-64
2021/01/11 11:42:41;;;;;;;27.02;16.25;;;4.10;1.00;;;;;;5067393;28;20212;-64
2021/01/11 11:45:16;;;;;;;30.48;16.63;;;4.10;1.00;;;;;;5068033;28;20633;-66
2021/01/11 11:47:43;;;;;;;26.65;16.50;;;4.00;1.00;;;;;;5088342;28;20176;-63
2021/01/11 11:50:18;;;;;;;33.70;19.65;;;4.10;1.00;;;;;;5073339;28;20181;-65
2021/01/11 11:52:43;;;;;;;26.90;15.95;;;4.20;1.00;;;;;;5074313;28;20271;-63
2021/01/11 11:55:11;;;;;;;26.50;16.83;;;4.20;1.00;;;;;;5073941;28;20219;-63
2021/01/11 11:57:40;;;;;;;25.70;14.95;;;4.20;1.00;;;;;;5073880;28;20205;-62
2021/01/11 12:00:08;;;;;;;26.27;16.20;;;4.00;1.00;;;;;;5073963;28;20634;-63
2021/01/11 12:02:34;;;;;;;29.55;16.27;;;4.00;1.00;;;;;;5073179;28;20189;-60
2021/01/11 12:05:00;;;;;;;27.27;16.97;;;4.00;1.00;;;;;;5073419;28;20188;-63
2021/01/11 12:07:27;;;;;;;27.90;17.05;;;4.00;1.00;;;;;;5069233;28;20260;-62
2021/01/11 12:09:54;;;;;;;25.13;15.38;;;4.10;1.00;;;;;;5053990;28;20208;-62
2021/01/11 12:12:20;;;;;;;31.70;17.55;;;4.10;1.00;;;;;;5053143;28;20185;-63
2021/01/11 12:14:45;;;;;;;26.25;15.70;;;4.10;1.00;;;;;;5053846;28;20485;-61
2021/01/11 12:17:11;;;;;;;25.07;15.97;;;4.20;1.00;;;;;;5053906;28;20188;-61
2021/01/11 12:19:36;;;;;;;34.13;18.37;;;4.10;1.00;;;;;;5058424;28;20607;-65
2021/01/11 12:22:06;;;;;;;31.23;19.50;;;4.00;1.00;;;;;;5089086;28;20265;-63
2021/01/11 12:24:32;;;;;;;30.80;19.27;;;4.10;1.00;;;;;;5073589;28;20176;-61
2021/01/11 12:26:58;;;;;;;29.13;16.80;;;4.20;1.00;;;;;;5073787;28;20188;-63
2021/01/11 12:29:23;;;;;;;32.83;18.13;;;4.30;1.00;;;;;;5073787;28;20525;-62
2021/01/11 12:31:50;;;;;;;32.13;18.23;;;4.40;1.00;;;;;;5072957;28;20180;-62
2021/01/11 12:34:16;;;;;;;26.40;16.25;;;4.20;1.00;;;;;;5072611;28;20188;-59
2021/01/11 12:36:41;;;;;;;27.80;17.10;;;4.10;1.00;;;;;;5072888;28;20276;-60
2021/01/11 12:39:11;;;;;;;24.90;14.73;;;4.10;1.00;;;;;;5073694;28;20439;-62
2021/01/11 12:41:38;;;;;;;29.92;17.23;;;4.10;1.00;;;;;;5073770;28;20275;-65
2021/01/11 12:44:08;;;;;;;27.70;16.63;;;4.10;1.00;;;;;;5087884;28;20204;-62
2021/01/11 12:46:35;;;;;;;26.05;16.08;;;4.00;1.00;;;;;;5073761;28;20179;-63